sensor_id;sensor_type;location;lat;lon;timestamp;pressure;altitude;pressure_sealevel;temperature;humidity
79000;BME280;68406;53.914;27.416;2023-03-23T00:03:53;981.6;;;8;68.2
79000;BME280;68406;53.914;27.416;2023-03-23T00:09:29;981.6;;;8;68.5
79000;BME280;68406;53.914;27.416;2023-03-23T00:14:01;981.6;;;8;68.8
79000;BME280;68406;53.914;27.416;2023-03-23T00:18:50;981.6;;;8;69.1
79000;BME280;68406;53.914;27.416;2023-03-23T00:24:13;981.5;;;8;69.3
79000;BME280;68406;53.914;27.416;2023-03-23T00:29:07;981.4;;;8;69.5
79000;BME280;68406;53.914;27.416;2023-03-23T00:34:30;981.4;;;8;69.8
79000;BME280;68406;53.914;27.416;2023-03-23T00:38:52;981.4;;;8;70
79000;BME280;68406;53.914;27.416;2023-03-23T00:43:53;981.4;;;8;70.1
79000;BME280;68406;53.914;27.416;2023-03-23T00:49:11;981.4;;;8;70.2
79000;BME280;68406;53.914;27.416;2023-03-23T00:53:52;981.3;;;8.1;70.2
79000;BME280;68406;53.914;27.416;2023-03-23T00:59:28;981.3;;;8.1;70.3
79000;BME280;68406;53.914;27.416;2023-03-23T01:03:52;981.3;;;8.1;70.4
79000;BME280;68406;53.914;27.416;2023-03-23T01:08:52;981.3;;;8.1;70.5
79000;BME280;68406;53.914;27.416;2023-03-23T01:14:13;981.3;;;8;70.6
79000;BME280;68406;53.914;27.416;2023-03-23T01:18:52;981.2;;;8;70.8
79000;BME280;68406;53.914;27.416;2023-03-23T01:24:28;981.2;;;8;70.8
79000;BME280;68406;53.914;27.416;2023-03-23T01:29:04;981.2;;;8;71
79000;BME280;68406;53.914;27.416;2023-03-23T01:33:43;981.1;;;8;71.2
79000;BME280;68406;53.914;27.416;2023-03-23T01:39:14;981.1;;;7.9;71.3
79000;BME280;68406;53.914;27.416;2023-03-23T01:43:59;981.1;;;7.9;71.5
79000;BME280;68406;53.914;27.416;2023-03-23T01:49:31;981;;;7.9;71.7
79000;BME280;68406;53.914;27.416;2023-03-23T01:53:43;981;;;7.9;71.7
79000;BME280;68406;53.914;27.416;2023-03-23T01:58:52;981;;;7.9;71.9
79000;BME280;68406;53.914;27.416;2023-03-23T02:04:14;981;;;7.9;71.9
79000;BME280;68406;53.914;27.416;2023-03-23T02:08:52;981;;;7.9;72
79000;BME280;68406;53.914;27.416;2023-03-23T02:14:28;981;;;7.9;72.1
79000;BME280;68406;53.914;27.416;2023-03-23T02:18:47;981;;;7.9;72.4
79000;BME280;68406;53.914;27.416;2023-03-23T02:23:56;981;;;7.9;72.6
79000;BME280;68406;53.914;27.416;2023-03-23T02:29:19;981;;;7.8;72.9
79000;BME280;68406;53.914;27.416;2023-03-23T02:33:44;980.9;;;7.8;73.1
79000;BME280;68406;53.914;27.416;2023-03-23T02:39:25;980.9;;;7.8;73.7
79000;BME280;68406;53.914;27.416;2023-03-23T02:43:43;980.9;;;7.7;74.2
79000;BME280;68406;53.914;27.416;2023-03-23T02:48:43;980.8;;;7.6;74.8
79000;BME280;68406;53.914;27.416;2023-03-23T02:54:15;980.8;;;7.5;75.1
79000;BME280;68406;53.914;27.416;2023-03-23T02:58:42;980.8;;;7.6;75.1
79000;BME280;68406;53.914;27.416;2023-03-23T03:04:27;980.8;;;7.6;75
79000;BME280;68406;53.914;27.416;2023-03-23T03:09:03;980.8;;;7.6;75
79000;BME280;68406;53.914;27.416;2023-03-23T03:14:29;980.8;;;7.6;75.2
79000;BME280;68406;53.914;27.416;2023-03-23T03:19:10;980.7;;;7.6;75.3
79000;BME280;68406;53.914;27.416;2023-03-23T03:23:43;980.6;;;7.6;75.2
79000;BME280;68406;53.914;27.416;2023-03-23T03:29:29;980.5;;;7.6;75.2
79000;BME280;68406;53.914;27.416;2023-03-23T03:34:00;980.5;;;7.7;75.2
79000;BME280;68406;53.914;27.416;2023-03-23T03:39:27;980.5;;;7.7;75.1
79000;BME280;68406;53.914;27.416;2023-03-23T03:44:09;980.5;;;7.8;75
79000;BME280;68406;53.914;27.416;2023-03-23T03:48:52;980.4;;;7.9;74.9
79000;BME280;68406;53.914;27.416;2023-03-23T03:54:28;980.3;;;8;74.8
79000;BME280;68406;53.914;27.416;2023-03-23T03:58:43;980.2;;;8;74.5
79000;BME280;68406;53.914;27.416;2023-03-23T04:04:28;980.1;;;8.1;74.5
79000;BME280;68406;53.914;27.416;2023-03-23T04:09:12;980.1;;;8.1;74.5
79000;BME280;68406;53.914;27.416;2023-03-23T04:14:08;980;;;8.2;74.2
79000;BME280;68406;53.914;27.416;2023-03-23T04:19:25;980.1;;;8.2;74.2
79000;BME280;68406;53.914;27.416;2023-03-23T04:24:03;980.1;;;8.2;73.9
79000;BME280;68406;53.914;27.416;2023-03-23T04:29:26;980.1;;;8.2;73.7
79000;BME280;68406;53.914;27.416;2023-03-23T04:34:13;980.1;;;8.2;73.7
79000;BME280;68406;53.914;27.416;2023-03-23T04:38:52;980.1;;;8.3;73.6
79000;BME280;68406;53.914;27.416;2023-03-23T04:44:29;980;;;8.3;73.5
79000;BME280;68406;53.914;27.416;2023-03-23T04:48:59;980.1;;;8.4;72.9
79000;BME280;68406;53.914;27.416;2023-03-23T04:54:26;980.1;;;8.5;72.8
79000;BME280;68406;53.914;27.416;2023-03-23T04:59:11;980.2;;;8.6;72.5
79000;BME280;68406;53.914;27.416;2023-03-23T05:03:43;980.1;;;8.7;72.1
79000;BME280;68406;53.914;27.416;2023-03-23T05:09:27;980.2;;;8.7;72
79000;BME280;68406;53.914;27.416;2023-03-23T05:14:03;980.1;;;8.8;71.7
79000;BME280;68406;53.914;27.416;2023-03-23T05:19:13;980.1;;;8.8;71.5
79000;BME280;68406;53.914;27.416;2023-03-23T05:24:10;980.1;;;8.8;71.2
79000;BME280;68406;53.914;27.416;2023-03-23T05:28:55;980.1;;;8.8;71.2
79000;BME280;68406;53.914;27.416;2023-03-23T05:34:25;980;;;8.7;71.4
79000;BME280;68406;53.914;27.416;2023-03-23T05:38:43;980;;;8.7;71.4
79000;BME280;68406;53.914;27.416;2023-03-23T05:44:27;980;;;8.8;71.1
79000;BME280;68406;53.914;27.416;2023-03-23T05:49:13;980;;;8.9;71
79000;BME280;68406;53.914;27.416;2023-03-23T05:53:43;980;;;9;70.5
79000;BME280;68406;53.914;27.416;2023-03-23T05:59:27;980;;;9.1;70.1
79000;BME280;68406;53.914;27.416;2023-03-23T06:03:51;980;;;9.2;69.9
79000;BME280;68406;53.914;27.416;2023-03-23T06:09:27;980.1;;;9.2;69.8
79000;BME280;68406;53.914;27.416;2023-03-23T06:14:11;980.1;;;9.2;69.7
79000;BME280;68406;53.914;27.416;2023-03-23T06:19:15;980.1;;;9.2;69.8
79000;BME280;68406;53.914;27.416;2023-03-23T06:24:19;980.1;;;9.3;69.7
79000;BME280;68406;53.914;27.416;2023-03-23T06:29:21;980.1;;;9.2;69.8
79000;BME280;68406;53.914;27.416;2023-03-23T06:33:55;980.2;;;9.2;69.6
79000;BME280;68406;53.914;27.416;2023-03-23T06:39:11;980.2;;;9.3;69.5
79000;BME280;68406;53.914;27.416;2023-03-23T06:43:43;980.1;;;9.5;68.8
79000;BME280;68406;53.914;27.416;2023-03-23T06:49:27;980.1;;;9.7;68.4
79000;BME280;68406;53.914;27.416;2023-03-23T06:53:43;980;;;9.8;68
79000;BME280;68406;53.914;27.416;2023-03-23T06:59:29;980;;;10;67.9
79000;BME280;68406;53.914;27.416;2023-03-23T07:04:29;979.9;;;10.1;67.5
79000;BME280;68406;53.914;27.416;2023-03-23T07:08:43;979.9;;;10.1;67.6
79000;BME280;68406;53.914;27.416;2023-03-23T07:14:29;979.8;;;10.3;67.8
79000;BME280;68406;53.914;27.416;2023-03-23T07:19:01;979.7;;;10.6;66.6
79000;BME280;68406;53.914;27.416;2023-03-23T07:24:27;979.7;;;10.8;66
79000;BME280;68406;53.914;27.416;2023-03-23T07:29:13;979.7;;;11.2;65
79000;BME280;68406;53.914;27.416;2023-03-23T07:33:43;979.6;;;11.5;64.3
79000;BME280;68406;53.914;27.416;2023-03-23T07:39:29;979.5;;;12;63.2
79000;BME280;68406;53.914;27.416;2023-03-23T07:44:27;979.5;;;12.2;62.4
79000;BME280;68406;53.914;27.416;2023-03-23T07:49:27;979.4;;;12.4;61.8
79000;BME280;68406;53.914;27.416;2023-03-23T07:54:13;979.4;;;12.4;61.4
79000;BME280;68406;53.914;27.416;2023-03-23T07:58:43;979.3;;;12.2;61.3
79000;BME280;68406;53.914;27.416;2023-03-23T08:04:27;979.2;;;12.2;61.2
79000;BME280;68406;53.914;27.416;2023-03-23T08:08:43;979.2;;;12.7;60.1
79000;BME280;68406;53.914;27.416;2023-03-23T08:14:27;979.2;;;12.8;59.7
79000;BME280;68406;53.914;27.416;2023-03-23T08:19:11;979.2;;;12.6;59.4
79000;BME280;68406;53.914;27.416;2023-03-23T08:23:43;979.2;;;12.4;59.7
79000;BME280;68406;53.914;27.416;2023-03-23T08:29:29;979.2;;;12.2;60
79000;BME280;68406;53.914;27.416;2023-03-23T08:34:03;979.2;;;12;60.8
79000;BME280;68406;53.914;27.416;2023-03-23T08:39:27;979.2;;;12;61
79000;BME280;68406;53.914;27.416;2023-03-23T08:43:55;979.1;;;11.9;61.2
79000;BME280;68406;53.914;27.416;2023-03-23T08:49:07;979.1;;;11.9;61.4
79000;BME280;68406;53.914;27.416;2023-03-23T08:54:25;979.1;;;11.8;61.5
79000;BME280;68406;53.914;27.416;2023-03-23T08:58:53;979;;;11.9;61.5
79000;BME280;68406;53.914;27.416;2023-03-23T09:04:25;979;;;12.3;61.2
79000;BME280;68406;53.914;27.416;2023-03-23T09:09:09;978.9;;;12.8;60
79000;BME280;68406;53.914;27.416;2023-03-23T09:14:10;979;;;13.1;59.2
79000;BME280;68406;53.914;27.416;2023-03-23T09:19:25;979;;;13.5;58.3
79000;BME280;68406;53.914;27.416;2023-03-23T09:24:19;978.9;;;13.7;57.9
79000;BME280;68406;53.914;27.416;2023-03-23T09:29:29;979;;;14;57.3
79000;BME280;68406;53.914;27.416;2023-03-23T09:34:27;978.9;;;13.9;57.3
79000;BME280;68406;53.914;27.416;2023-03-23T09:38:53;978.9;;;14.1;57.2
79000;BME280;68406;53.914;27.416;2023-03-23T09:44:29;978.9;;;14.2;56.7
79000;BME280;68406;53.914;27.416;2023-03-23T09:49:03;978.8;;;14.4;56.3
79000;BME280;68406;53.914;27.416;2023-03-23T09:54:31;978.8;;;14.8;55.4
79000;BME280;68406;53.914;27.416;2023-03-23T10:09:29;978.8;;;15.2;54.5
79000;BME280;68406;53.914;27.416;2023-03-23T10:14:07;978.8;;;15.2;54.5
79000;BME280;68406;53.914;27.416;2023-03-23T10:19:29;978.8;;;15.2;54.5
79000;BME280;68406;53.914;27.416;2023-03-23T10:24:08;978.8;;;15.2;54.5
79000;BME280;68406;53.914;27.416;2023-03-23T10:28:43;978.8;;;15.2;54.5
79000;BME280;68406;53.914;27.416;2023-03-23T10:34:31;978.8;;;15.2;54.5
79000;BME280;68406;53.914;27.416;2023-03-23T10:38:53;978.8;;;15.2;54.5
79000;BME280;68406;53.914;27.416;2023-03-23T10:44:31;978.8;;;15.2;54.5
79000;BME280;68406;53.914;27.416;2023-03-23T10:49:34;978.8;;;15.2;54.5
79000;BME280;68406;53.914;27.416;2023-03-23T10:53:44;978.8;;;15.2;54.5
79000;BME280;68406;53.914;27.416;2023-03-23T10:59:31;978.8;;;15.2;54.5
79000;BME280;68406;53.914;27.416;2023-03-23T11:03:53;978.8;;;15.2;54.5
79000;BME280;68406;53.914;27.416;2023-03-23T11:09:19;978.8;;;15.2;54.5
79000;BME280;68406;53.914;27.416;2023-03-23T11:14:16;978.8;;;15.2;54.5
79000;BME280;68406;53.914;27.416;2023-03-23T11:18:43;978.8;;;15.2;54.5
79000;BME280;68406;53.914;27.416;2023-03-23T11:24:31;978.8;;;15.2;54.5
79000;BME280;68406;53.914;27.416;2023-03-23T11:29:05;978.8;;;15.2;54.5
79000;BME280;68406;53.914;27.416;2023-03-23T11:34:30;978.8;;;15.2;54.5
79000;BME280;68406;53.914;27.416;2023-03-23T11:39:21;978.8;;;15.2;54.5
79000;BME280;68406;53.914;27.416;2023-03-23T11:43:44;978.8;;;15.2;54.5
79000;BME280;68406;53.914;27.416;2023-03-23T11:49:35;978.8;;;15.2;54.5
79000;BME280;68406;53.914;27.416;2023-03-23T11:53:56;978.8;;;15.2;54.5
79000;BME280;68406;53.914;27.416;2023-03-23T11:59:33;978.8;;;15.2;54.5
79000;BME280;68406;53.914;27.416;2023-03-23T12:04:20;978.8;;;15.2;54.5
79000;BME280;68406;53.914;27.416;2023-03-23T12:08:54;978.8;;;15.2;54.5
79000;BME280;68406;53.914;27.416;2023-03-23T12:14:30;978.8;;;15.2;54.5
79000;BME280;68406;53.914;27.416;2023-03-23T12:19:08;978.8;;;15.2;54.5
79000;BME280;68406;53.914;27.416;2023-03-23T12:24:17;978.8;;;15.2;54.5
79000;BME280;68406;53.914;27.416;2023-03-23T12:29:34;978.8;;;15.2;54.5
79000;BME280;68406;53.914;27.416;2023-03-23T12:34:10;978.8;;;15.2;54.5
79000;BME280;68406;53.914;27.416;2023-03-23T12:39:37;978.8;;;15.2;54.5
79000;BME280;68406;53.914;27.416;2023-03-23T12:43:57;978.8;;;15.2;54.5
79000;BME280;68406;53.914;27.416;2023-03-23T12:48:46;978.8;;;15.2;54.5
79000;BME280;68406;53.914;27.416;2023-03-23T12:54:32;978.8;;;15.2;54.5
79000;BME280;68406;53.914;27.416;2023-03-23T12:58:56;978.8;;;15.2;54.5
79000;BME280;68406;53.914;27.416;2023-03-23T13:04:32;978.8;;;15.2;54.5
79000;BME280;68406;53.914;27.416;2023-03-23T13:08:47;978.8;;;15.2;54.5
79000;BME280;68406;53.914;27.416;2023-03-23T13:14:24;978.8;;;15.2;54.5
79000;BME280;68406;53.914;27.416;2023-03-23T13:19:32;978.8;;;15.2;54.5
79000;BME280;68406;53.914;27.416;2023-03-23T13:23:56;978.8;;;15.2;54.5
79000;BME280;68406;53.914;27.416;2023-03-23T13:29:31;978.8;;;15.2;54.5
79000;BME280;68406;53.914;27.416;2023-03-23T13:34:11;978.8;;;15.2;54.5
79000;BME280;68406;53.914;27.416;2023-03-23T13:39:17;978.8;;;15.2;54.5
79000;BME280;68406;53.914;27.416;2023-03-23T13:44:41;978.8;;;15.2;54.5
79000;BME280;68406;53.914;27.416;2023-03-23T13:49:19;978.8;;;15.2;54.5
79000;BME280;68406;53.914;27.416;2023-03-23T13:54:32;978.8;;;15.2;54.5
79000;BME280;68406;53.914;27.416;2023-03-23T13:59:32;978.8;;;15.2;54.5
79000;BME280;68406;53.914;27.416;2023-03-23T14:04:19;978.8;;;15.2;54.5
79000;BME280;68406;53.914;27.416;2023-03-23T14:38:45;978.8;;;15.2;54.5
79000;BME280;68406;53.914;27.416;2023-03-23T14:44:32;978.8;;;15.2;54.5
79000;BME280;68406;53.914;27.416;2023-03-23T14:49:19;978.8;;;15.2;54.5
79000;BME280;68406;53.914;27.416;2023-03-23T14:54:22;978.8;;;15.2;54.5
79000;BME280;68406;53.914;27.416;2023-03-23T14:59:06;978.8;;;15.2;54.5
79000;BME280;68406;53.914;27.416;2023-03-23T15:03:44;978.8;;;15.2;54.5
79000;BME280;68406;53.914;27.416;2023-03-23T15:09:37;978.8;;;15.2;54.5
79000;BME280;68406;53.914;27.416;2023-03-23T15:13:55;978.8;;;15.2;54.5
79000;BME280;68406;53.914;27.416;2023-03-23T15:19:21;978.8;;;15.2;54.5
79000;BME280;68406;53.914;27.416;2023-03-23T15:24:36;978.8;;;15.2;54.5
79000;BME280;68406;53.914;27.416;2023-03-23T15:29:01;978.8;;;15.2;54.5
79000;BME280;68406;53.914;27.416;2023-03-23T15:34:30;978.8;;;15.2;54.5
79000;BME280;68406;53.914;27.416;2023-03-23T15:39:08;978.8;;;15.2;54.5
79000;BME280;68406;53.914;27.416;2023-03-23T15:44:23;978.8;;;15.2;54.5
79000;BME280;68406;53.914;27.416;2023-03-23T15:49:33;978.8;;;15.2;54.5
79000;BME280;68406;53.914;27.416;2023-03-23T15:53:57;978.8;;;15.2;54.5
79000;BME280;68406;53.914;27.416;2023-03-23T15:59:33;978.8;;;15.2;54.5
79000;BME280;68406;53.914;27.416;2023-03-23T16:03:45;978.8;;;15.2;54.5
79000;BME280;68406;53.914;27.416;2023-03-23T16:09:12;978.8;;;15.2;54.5
79000;BME280;68406;53.914;27.416;2023-03-23T16:14:31;978.8;;;15.2;54.5
79000;BME280;68406;53.914;27.416;2023-03-23T16:18:45;978.8;;;15.2;54.5
79000;BME280;68406;53.914;27.416;2023-03-23T16:24:01;978.8;;;15.2;54.5
79000;BME280;68406;53.914;27.416;2023-03-23T16:29:25;978.8;;;15.2;54.5
79000;BME280;68406;53.914;27.416;2023-03-23T16:34:31;978.8;;;15.2;54.5
79000;BME280;68406;53.914;27.416;2023-03-23T16:39:09;978.8;;;15.2;54.5
79000;BME280;68406;53.914;27.416;2023-03-23T16:43:45;978.8;;;15.2;54.5
79000;BME280;68406;53.914;27.416;2023-03-23T16:48:45;978.8;;;15.2;54.5
79000;BME280;68406;53.914;27.416;2023-03-23T16:54:23;978.8;;;15.2;54.5
79000;BME280;68406;53.914;27.416;2023-03-23T16:59:35;978.8;;;15.2;54.5
79000;BME280;68406;53.914;27.416;2023-03-23T17:04:07;978.8;;;15.2;54.5
79000;BME280;68406;53.914;27.416;2023-03-23T17:08:45;978.8;;;15.2;54.5
79000;BME280;68406;53.914;27.416;2023-03-23T17:13:51;978.8;;;15.2;54.5
79000;BME280;68406;53.914;27.416;2023-03-23T17:19:17;978.8;;;15.2;54.5
79000;BME280;68406;53.914;27.416;2023-03-23T17:24:31;978.8;;;15.2;54.5
79000;BME280;68406;53.914;27.416;2023-03-23T17:29:29;978.8;;;15.2;54.5
79000;BME280;68406;53.914;27.416;2023-03-23T17:33:53;978.8;;;15.2;54.5
79000;BME280;68406;53.914;27.416;2023-03-23T17:39:01;978.8;;;15.2;54.5
79000;BME280;68406;53.914;27.416;2023-03-23T17:44:21;978.8;;;15.2;54.5
79000;BME280;68406;53.914;27.416;2023-03-23T17:49:29;978.8;;;15.2;54.5
79000;BME280;68406;53.914;27.416;2023-03-23T17:54:19;978.8;;;15.2;54.5
79000;BME280;68406;53.914;27.416;2023-03-23T17:58:55;978.8;;;15.2;54.5
79000;BME280;68406;53.914;27.416;2023-03-23T18:04:03;978.8;;;15.2;54.5
79000;BME280;68406;53.914;27.416;2023-03-23T18:09:31;978.8;;;15.2;54.5
79000;BME280;68406;53.914;27.416;2023-03-23T18:14:25;978.8;;;15.2;54.5
79000;BME280;68406;53.914;27.416;2023-03-23T18:19:31;978.8;;;15.2;54.5
79000;BME280;68406;53.914;27.416;2023-03-23T18:24:33;978.8;;;15.2;54.5
79000;BME280;68406;53.914;27.416;2023-03-23T18:29:09;978.8;;;15.2;54.5
79000;BME280;68406;53.914;27.416;2023-03-23T18:34:19;978.8;;;15.2;54.5
79000;BME280;68406;53.914;27.416;2023-03-23T18:39:30;978.8;;;15.2;54.5
79000;BME280;68406;53.914;27.416;2023-03-23T18:44:11;978.8;;;15.2;54.5
79000;BME280;68406;53.914;27.416;2023-03-23T18:48:45;978.8;;;15.2;54.5
79000;BME280;68406;53.914;27.416;2023-03-23T18:54:03;978.8;;;15.2;54.5
79000;BME280;68406;53.914;27.416;2023-03-23T18:58:43;978.8;;;15.2;54.5
79000;BME280;68406;53.914;27.416;2023-03-23T19:04:29;978.8;;;15.2;54.5
79000;BME280;68406;53.914;27.416;2023-03-23T19:09:21;978.8;;;15.2;54.5
79000;BME280;68406;53.914;27.416;2023-03-23T19:13:55;978.8;;;15.2;54.5
79000;BME280;68406;53.914;27.416;2023-03-23T19:18:55;978.8;;;15.2;54.5
79000;BME280;68406;53.914;27.416;2023-03-23T19:24:19;978.8;;;15.2;54.5
79000;BME280;68406;53.914;27.416;2023-03-23T19:29:31;978.8;;;15.2;54.5
79000;BME280;68406;53.914;27.416;2023-03-23T19:34:21;978.8;;;15.2;54.5
79000;BME280;68406;53.914;27.416;2023-03-23T19:38:51;978.8;;;15.2;54.5
79000;BME280;68406;53.914;27.416;2023-03-23T19:44:03;978.8;;;15.2;54.5
79000;BME280;68406;53.914;27.416;2023-03-23T19:49:05;978.8;;;15.2;54.5
79000;BME280;68406;53.914;27.416;2023-03-23T19:54:31;978.8;;;15.2;54.5
79000;BME280;68406;53.914;27.416;2023-03-23T19:59:19;978.8;;;15.2;54.5
79000;BME280;68406;53.914;27.416;2023-03-23T20:03:55;978.8;;;15.2;54.5
79000;BME280;68406;53.914;27.416;2023-03-23T20:09:31;978.8;;;15.2;54.5
79000;BME280;68406;53.914;27.416;2023-03-23T20:14:07;978.8;;;15.2;54.5
79000;BME280;68406;53.914;27.416;2023-03-23T20:19:31;978.8;;;15.2;54.5
79000;BME280;68406;53.914;27.416;2023-03-23T20:24:05;978.8;;;15.2;54.5
79000;BME280;68406;53.914;27.416;2023-03-23T20:28:43;978.8;;;15.2;54.5
79000;BME280;68406;53.914;27.416;2023-03-23T20:34:04;978.8;;;15.2;54.5
79000;BME280;68406;53.914;27.416;2023-03-23T20:38:59;978.8;;;15.2;54.5
79000;BME280;68406;53.914;27.416;2023-03-23T20:44:27;978.8;;;15.2;54.5
79000;BME280;68406;53.914;27.416;2023-03-23T20:49:07;978.8;;;15.2;54.5
79000;BME280;68406;53.914;27.416;2023-03-23T20:53:55;978.8;;;15.2;54.5
79000;BME280;68406;53.914;27.416;2023-03-23T20:58:49;978.8;;;15.2;54.5
79000;BME280;68406;53.914;27.416;2023-03-23T21:03:53;978.8;;;15.2;54.5
79000;BME280;68406;53.914;27.416;2023-03-23T21:09:29;978.8;;;15.2;54.5
79000;BME280;68406;53.914;27.416;2023-03-23T21:14:21;978.8;;;15.2;54.5
79000;BME280;68406;53.914;27.416;2023-03-23T21:18:53;978.8;;;15.2;54.5
79000;BME280;68406;53.914;27.416;2023-03-23T21:24:01;978.8;;;15.2;54.5
79000;BME280;68406;53.914;27.416;2023-03-23T21:28:55;978.8;;;15.2;54.5
79000;BME280;68406;53.914;27.416;2023-03-23T21:34:31;978.8;;;15.2;54.5
79000;BME280;68406;53.914;27.416;2023-03-23T21:39:21;978.8;;;15.2;54.5
79000;BME280;68406;53.914;27.416;2023-03-23T21:43:43;978.8;;;15.2;54.5
79000;BME280;68406;53.914;27.416;2023-03-23T21:49:15;978.8;;;15.2;54.5
79000;BME280;68406;53.914;27.416;2023-03-23T21:53:43;978.8;;;15.2;54.5
79000;BME280;68406;53.914;27.416;2023-03-23T21:59:19;978.8;;;15.2;54.5
79000;BME280;68406;53.914;27.416;2023-03-23T22:04:21;978.8;;;15.2;54.5
79000;BME280;68406;53.914;27.416;2023-03-23T22:08:59;978.8;;;15.2;54.5
79000;BME280;68406;53.914;27.416;2023-03-23T22:14:15;978.8;;;15.2;54.5
79000;BME280;68406;53.914;27.416;2023-03-23T22:18:43;978.8;;;15.2;54.5
79000;BME280;68406;53.914;27.416;2023-03-23T22:24:31;978.8;;;15.2;54.5
79000;BME280;68406;53.914;27.416;2023-03-23T22:29:23;978.8;;;15.2;54.5
79000;BME280;68406;53.914;27.416;2023-03-23T22:33:54;978.8;;;15.2;54.5
79000;BME280;68406;53.914;27.416;2023-03-23T22:39:15;978.8;;;15.2;54.5
79000;BME280;68406;53.914;27.416;2023-03-23T22:43:55;978.8;;;15.2;54.5
79000;BME280;68406;53.914;27.416;2023-03-23T22:49:31;978.8;;;15.2;54.5
79000;BME280;68406;53.914;27.416;2023-03-23T22:54:23;978.8;;;15.2;54.5
79000;BME280;68406;53.914;27.416;2023-03-23T22:58:53;978.8;;;15.2;54.5
79000;BME280;68406;53.914;27.416;2023-03-23T23:04:02;978.8;;;15.2;54.5
79000;BME280;68406;53.914;27.416;2023-03-23T23:09:05;978.8;;;15.2;54.5
79000;BME280;68406;53.914;27.416;2023-03-23T23:14:33;978.8;;;15.2;54.5
79000;BME280;68406;53.914;27.416;2023-03-23T23:19:11;978.8;;;15.2;54.5
79000;BME280;68406;53.914;27.416;2023-03-23T23:23:43;978.8;;;15.2;54.5
79000;BME280;68406;53.914;27.416;2023-03-23T23:29:01;978.8;;;15.2;54.5
79000;BME280;68406;53.914;27.416;2023-03-23T23:34:02;978.8;;;15.2;54.5
79000;BME280;68406;53.914;27.416;2023-03-23T23:39:29;978.8;;;15.2;54.5
79000;BME280;68406;53.914;27.416;2023-03-23T23:44:21;978.8;;;15.2;54.5
79000;BME280;68406;53.914;27.416;2023-03-23T23:49:03;978.8;;;15.2;54.5
79000;BME280;68406;53.914;27.416;2023-03-23T23:53:43;978.8;;;15.2;54.5
79000;BME280;68406;53.914;27.416;2023-03-23T23:58:43;978.8;;;15.2;54.5
